Terminal Aerodrome Forecast
Issued by NWS Omaha/Valley, NE

Home | Current Version | Previous Version | Graphics & Text | Print | Product List | Glossary On
Versions: 1 2 3 4 5 6 7 8 9 10 11 12 13 14 15 16 17 18 19 20 21 22 23 24 25 26 27 28
000
FTUS43 KOAX 211738
TAFOFK
TAF
KOFK 211738Z 2118/2218 18015G25KT P6SM SCT200
     FM212000 19008KT P6SM VCTS SCT200CB
     FM212200 24007KT P6SM -SHRA BKN090
      TEMPO 2122/2202 4SM TS OVC040CB
     FM220200 32006KT P6SM VCTS BKN150CB
     FM220600 34006KT P6SM BKN100
     FM221000 34006KT 5SM BR SCT090=

USA.gov is the U.S. government's official web portal to all federal, state and local government web resources and services.